createdAt,value
2018-02-20T05:56:01.430Z,3
2018-02-20T06:02:01.791Z,7
2018-02-20T06:05:01.981Z,10
2018-02-20T06:07:02.161Z,13
2018-02-20T06:08:32.228Z,17
2018-02-20T06:09:32.290Z,20
2018-02-20T06:11:02.369Z,23
2018-02-20T06:12:02.430Z,27
2018-02-20T06:12:32.527Z,30
2018-02-20T06:13:32.524Z,33
2018-02-20T06:14:02.535Z,37
2018-02-20T06:15:02.649Z,40
2018-02-20T06:15:32.633Z,43
2018-02-20T06:16:02.703Z,47
2018-02-20T06:16:32.758Z,50
2018-02-20T06:17:02.723Z,53
2018-02-20T06:17:32.762Z,57
2018-02-20T06:18:02.768Z,60
2018-02-20T06:18:32.849Z,63
2018-02-20T06:19:02.852Z,67
2018-02-20T06:19:32.874Z,70
2018-02-20T06:20:02.902Z,77
2018-02-20T06:20:32.933Z,80
2018-02-20T06:21:02.950Z,83
2018-02-20T06:21:32.995Z,87
2018-02-20T06:22:03.023Z,93
2018-02-20T06:22:33.051Z,97
2018-02-20T06:23:03.108Z,103
2018-02-20T06:23:33.156Z,107
2018-02-20T06:24:03.141Z,110
2018-02-20T06:24:33.213Z,117
2018-02-20T06:25:03.265Z,123
2018-02-20T06:25:33.263Z,127
2018-02-20T06:26:03.259Z,133
2018-02-20T06:26:33.388Z,137
2018-02-20T06:27:03.347Z,143
2018-02-20T06:27:33.387Z,150
2018-02-20T06:28:03.424Z,153
2018-02-20T06:28:33.448Z,160
2018-02-20T06:29:03.515Z,167
2018-02-20T06:29:33.517Z,173
2018-02-20T06:30:03.560Z,177
2018-02-20T06:30:33.563Z,183
2018-02-20T06:31:03.643Z,190
2018-02-20T06:31:33.685Z,197
2018-02-20T06:32:03.710Z,207
2018-02-20T06:32:33.720Z,213
2018-02-20T06:33:03.728Z,217
2018-02-20T06:33:33.795Z,223
2018-02-20T06:34:03.846Z,230
2018-02-20T06:34:33.844Z,240
2018-02-20T06:35:03.867Z,247
2018-02-20T06:35:34.397Z,253
2018-02-20T06:36:03.922Z,263
2018-02-20T06:36:33.928Z,270
2018-02-20T06:37:03.987Z,280
2018-02-20T06:37:33.980Z,287
2018-02-20T06:38:04.075Z,297
2018-02-20T06:38:34.095Z,307
2018-02-20T06:39:04.097Z,313
2018-02-20T06:39:34.132Z,323
2018-02-20T06:40:04.159Z,333
2018-02-20T06:40:34.215Z,343
2018-02-20T06:41:04.244Z,353
2018-02-20T06:41:34.226Z,363
2018-02-20T06:42:04.324Z,373
2018-02-20T06:42:34.311Z,383
2018-02-20T06:43:04.344Z,393
2018-02-20T06:43:34.378Z,403
2018-02-20T06:44:04.390Z,417
2018-02-20T06:44:34.430Z,427
2018-02-20T06:45:04.484Z,433
2018-02-20T06:45:34.517Z,447
2018-02-20T06:46:04.521Z,457
2018-02-20T06:46:34.534Z,470
2018-02-20T06:47:04.580Z,483
2018-02-20T06:47:34.582Z,493
2018-02-20T06:48:04.667Z,507
2018-02-20T06:48:34.670Z,520
2018-02-20T06:49:04.689Z,533
2018-02-20T06:49:34.725Z,543
2018-02-20T06:50:04.820Z,557
2018-02-20T06:50:35.260Z,570
2018-02-20T06:51:04.815Z,583
2018-02-20T06:51:34.845Z,600
2018-02-20T06:52:04.868Z,613
2018-02-20T06:52:34.976Z,627
2018-02-20T06:53:04.926Z,640
2018-02-20T06:53:34.955Z,650
2018-02-20T06:54:05.024Z,667
2018-02-20T06:54:35.488Z,680
2018-02-20T06:55:05.170Z,697
2018-02-20T06:55:35.104Z,710
2018-02-20T06:56:05.159Z,727
2018-02-20T06:56:35.191Z,740
2018-02-20T06:57:05.184Z,757
2018-02-20T06:57:35.228Z,773
2018-02-20T06:58:05.238Z,787
2018-02-20T06:58:35.265Z,803
2018-02-20T06:59:05.330Z,820
2018-02-20T06:59:35.331Z,833
2018-02-20T07:00:05.393Z,850
2018-02-20T07:00:35.418Z,863
2018-02-20T07:01:05.457Z,880
2018-02-20T07:01:35.468Z,897
2018-02-20T07:02:05.515Z,913
2018-02-20T07:02:35.597Z,933
2018-02-20T07:03:05.558Z,950
2018-02-20T07:03:35.634Z,967
2018-02-20T07:04:05.620Z,983
2018-02-20T07:04:35.654Z,1003
2018-02-20T07:05:05.688Z,1020
2018-02-20T07:05:35.692Z,1037
2018-02-20T07:06:05.730Z,1053
2018-02-20T07:06:35.755Z,1067
2018-02-20T07:07:05.788Z,1083
2018-02-20T07:07:35.847Z,1100
2018-02-20T07:08:05.871Z,1117
2018-02-20T07:08:35.876Z,1133
2018-02-20T07:09:05.905Z,1147
2018-02-20T07:09:35.924Z,1163
2018-02-20T07:10:06.021Z,1180
2018-02-20T07:10:35.998Z,1197
2018-02-20T07:11:06.033Z,1217
2018-02-20T07:11:36.077Z,1233
2018-02-20T07:12:06.164Z,1250
2018-02-20T07:12:36.126Z,1270
2018-02-20T07:13:06.168Z,1283
2018-02-20T07:13:36.208Z,1303
2018-02-20T07:14:06.225Z,1323
2018-02-20T07:14:36.290Z,1340
2018-02-20T07:15:06.361Z,1363
2018-02-20T07:15:36.333Z,1383
2018-02-20T07:16:06.414Z,1407
2018-02-20T07:16:36.380Z,1433
2018-02-20T07:17:06.400Z,1457
2018-02-20T07:17:36.465Z,1483
2018-02-20T07:18:06.543Z,1503
2018-02-20T07:18:36.523Z,1530
2018-02-20T07:19:06.570Z,1557
2018-02-20T07:19:36.625Z,1587
2018-02-20T07:20:06.583Z,1613
2018-02-20T07:20:36.647Z,1640
2018-02-20T07:21:06.654Z,1663
2018-02-20T07:21:36.697Z,1687
2018-02-20T07:22:06.700Z,1707
2018-02-20T07:22:36.759Z,1730
2018-02-20T07:23:06.975Z,1757
2018-02-20T07:23:36.859Z,1780
2018-02-20T07:24:06.863Z,1800
2018-02-20T07:24:36.857Z,1823
2018-02-20T07:25:06.911Z,1847
2018-02-20T07:25:37.000Z,1870
2018-02-20T07:26:06.994Z,1893
2018-02-20T07:26:37.032Z,1913
2018-02-20T07:27:07.034Z,1930
2018-02-20T07:27:37.066Z,1950
2018-02-20T07:28:07.112Z,1970
2018-02-20T07:28:37.120Z,1987
2018-02-20T07:29:07.192Z,2003
2018-02-20T07:29:37.172Z,2020
2018-02-20T07:30:07.226Z,2037
2018-02-20T07:30:37.250Z,2050
2018-02-20T07:31:07.325Z,2063
2018-02-20T07:31:37.416Z,2073
2018-02-20T07:32:07.361Z,2083
2018-02-20T07:32:37.383Z,2097
2018-02-20T07:33:07.406Z,2110
2018-02-20T07:33:37.481Z,2130
2018-02-20T07:34:07.483Z,2143
2018-02-20T07:34:37.494Z,2170
2018-02-20T07:35:07.580Z,2223
2018-02-20T07:35:37.549Z,2307
2018-02-20T07:36:07.614Z,2383
2018-02-20T07:36:37.595Z,2440
2018-02-20T07:37:07.698Z,2473
2018-02-20T07:37:37.672Z,2457
2018-02-20T07:38:07.694Z,2453
2018-02-20T07:38:37.741Z,2493
2018-02-20T07:39:07.754Z,2530
2018-02-20T07:39:37.812Z,2560
2018-02-20T07:40:07.813Z,2590
2018-02-20T07:40:37.833Z,2613
2018-02-20T07:41:07.860Z,2630
2018-02-20T07:41:37.894Z,2627
2018-02-20T07:42:37.949Z,2620
2018-02-20T07:43:08.036Z,2610
2018-02-20T07:43:38.013Z,2630
2018-02-20T07:44:08.109Z,2687
2018-02-20T07:44:38.095Z,2750
2018-02-20T07:45:08.115Z,2837
2018-02-20T07:45:38.182Z,2950
2018-02-20T07:46:08.201Z,3080
2018-02-20T07:46:38.208Z,3217
2018-02-20T07:47:08.242Z,3360
2018-02-20T07:47:38.272Z,3453
2018-02-20T07:48:08.327Z,3527
2018-02-20T07:48:38.375Z,3573
2018-02-20T07:49:08.383Z,3610
2018-02-20T07:49:38.434Z,3697
2018-02-20T07:50:08.458Z,3800
2018-02-20T07:50:38.501Z,3937
2018-02-20T07:51:08.482Z,4177
2018-02-20T07:51:38.536Z,4520
2018-02-20T07:52:08.563Z,4767
2018-02-20T07:52:38.576Z,4937
2018-02-20T07:53:08.656Z,4957
2018-02-20T07:53:38.640Z,4983
2018-02-20T07:54:08.673Z,5127
2018-02-20T07:54:38.702Z,5350
2018-02-20T07:55:08.741Z,5597
2018-02-20T07:55:38.765Z,5833
2018-02-20T07:56:08.778Z,5943
2018-02-20T07:56:38.820Z,6003
2018-02-20T07:57:08.898Z,6027
2018-02-20T07:57:38.876Z,5973
2018-02-20T07:58:08.910Z,5933
2018-02-20T07:58:38.934Z,5993
2018-02-20T07:59:08.976Z,6150
2018-02-20T07:59:38.997Z,6347
2018-02-20T08:00:09.042Z,6473
2018-02-20T08:00:39.075Z,6637
2018-02-20T08:01:09.176Z,6820
2018-02-20T08:01:39.168Z,6987
2018-02-20T08:02:09.145Z,7063
2018-02-20T08:02:39.227Z,7080
2018-02-20T08:03:09.283Z,7060
2018-02-20T08:03:39.255Z,7117
2018-02-20T08:04:09.300Z,7190
2018-02-20T08:04:39.358Z,7370
2018-02-20T08:05:09.359Z,7500
2018-02-20T08:05:39.373Z,7590
2018-02-20T08:06:09.470Z,7583
2018-02-20T08:06:39.500Z,7560
2018-02-20T08:07:39.531Z,7613
2018-02-20T08:08:09.587Z,7673
2018-02-20T08:08:39.588Z,7807
2018-02-20T08:09:09.624Z,7987
2018-02-20T08:09:39.646Z,8163
2018-02-20T08:10:09.723Z,8317
2018-02-20T08:10:39.761Z,8477
2018-02-20T08:11:09.750Z,8663
2018-02-20T08:11:39.817Z,8817
2018-02-20T08:12:09.839Z,8913
2018-02-20T08:12:39.842Z,9020
2018-02-20T08:13:09.886Z,9083
2018-02-20T08:13:39.852Z,9163
2018-02-20T08:14:09.977Z,9223
2018-02-20T08:14:39.939Z,9197
2018-02-20T08:15:10.011Z,9160
2018-02-20T08:15:40.018Z,9007
2018-02-20T08:16:10.059Z,8537
2018-02-20T08:16:40.078Z,7850
2018-02-20T08:17:10.143Z,7273
2018-02-20T08:17:40.158Z,7007
2018-02-20T08:18:10.226Z,6880
2018-02-20T08:18:40.342Z,6887
2018-02-20T08:19:10.274Z,7047
2018-02-20T08:19:40.335Z,7410
2018-02-20T08:20:10.300Z,7753
2018-02-20T08:20:40.334Z,7910
2018-02-20T08:21:10.333Z,8030
2018-02-20T08:21:40.357Z,8203
2018-02-20T08:22:10.405Z,8533
2018-02-20T08:22:40.426Z,8870
2018-02-20T08:23:10.459Z,9017
2018-02-20T08:23:40.486Z,9117
2018-02-20T08:24:10.558Z,9223
2018-02-20T08:24:40.565Z,9340
2018-02-20T08:25:10.592Z,9467
2018-02-20T08:25:40.609Z,9640
2018-02-20T08:26:10.633Z,9830
2018-02-20T08:26:40.709Z,10033
2018-02-20T08:27:10.700Z,10197
2018-02-20T08:27:40.728Z,10297
2018-02-20T08:28:10.766Z,10460
2018-02-20T08:28:40.801Z,10550
2018-02-20T08:29:10.809Z,10583
2018-02-20T08:29:40.944Z,10567
2018-02-20T08:30:10.918Z,10533
2018-02-20T08:30:40.937Z,10597
2018-02-20T08:31:10.964Z,10807
2018-02-20T08:31:40.989Z,11187
2018-02-20T08:32:10.987Z,11633
2018-02-20T08:32:41.032Z,11980
2018-02-20T08:33:11.101Z,12307
2018-02-20T08:33:41.157Z,12510
2018-02-20T08:34:11.169Z,12680
2018-02-20T08:34:41.225Z,12730
2018-02-20T08:35:11.219Z,12697
2018-02-20T08:35:41.234Z,12710
2018-02-20T08:36:11.282Z,12697
2018-02-20T08:36:41.305Z,12717
2018-02-20T08:37:11.324Z,12730
2018-02-20T08:37:41.408Z,12740
2018-02-20T08:38:41.408Z,12857
2018-02-20T08:39:11.452Z,12957
2018-02-20T08:39:41.518Z,13023
2018-02-20T08:40:11.563Z,13140
2018-02-20T08:40:41.690Z,13203
2018-02-20T08:41:11.551Z,13297
2018-02-20T08:41:41.623Z,13340
2018-02-20T08:42:11.624Z,13350
2018-02-20T08:42:41.641Z,13347
2018-02-20T08:43:11.688Z,13313
2018-02-20T08:43:41.703Z,13363
2018-02-20T08:44:11.742Z,13440
2018-02-20T08:44:41.885Z,13573
2018-02-20T08:45:11.801Z,13807
2018-02-20T08:45:41.865Z,13917
2018-02-20T08:46:11.850Z,14047
2018-02-20T08:46:41.899Z,14330
2018-02-20T08:47:11.913Z,14540
2018-02-20T08:47:41.948Z,14663
2018-02-20T08:48:12.013Z,14783
2018-02-20T08:48:42.016Z,14860
2018-02-20T08:49:12.081Z,14920
2018-02-20T08:49:42.103Z,15103
2018-02-20T08:50:12.132Z,15197
2018-02-20T08:50:42.188Z,15193
2018-02-20T08:51:12.206Z,15113
2018-02-20T08:51:42.203Z,14953
2018-02-20T08:52:12.273Z,14970
2018-02-20T08:52:42.335Z,15070
2018-02-20T08:53:12.382Z,15130
2018-02-20T08:53:42.397Z,15063
2018-02-20T08:54:12.362Z,14993
2018-02-20T08:54:42.452Z,15030
2018-02-20T08:55:12.452Z,14987
2018-02-20T08:55:42.475Z,15290
2018-02-20T08:56:12.497Z,15580
2018-02-20T08:56:42.548Z,15667
2018-02-20T08:57:12.565Z,15650
2018-02-20T08:57:42.636Z,15603
2018-02-20T08:58:12.631Z,15707
2018-02-20T08:58:42.700Z,15503
2018-02-20T08:59:12.728Z,15753
2018-02-20T08:59:42.713Z,16100
2018-02-20T09:00:12.762Z,16097
2018-02-20T09:00:42.827Z,16197
2018-02-20T09:01:12.817Z,16187
2018-02-20T09:01:42.869Z,16257
2018-02-20T09:02:12.869Z,16127
2018-02-20T09:02:42.910Z,15717
2018-02-20T09:03:12.938Z,15690
2018-02-20T09:03:43.013Z,15653
2018-02-20T09:04:13.015Z,15477
2018-02-20T09:04:43.044Z,15663
2018-02-20T09:05:13.083Z,15777
2018-02-20T09:05:43.108Z,15817
2018-02-20T09:06:13.137Z,16023
2018-02-20T09:06:43.175Z,16037
2018-02-20T09:07:13.188Z,16010
2018-02-20T09:07:43.263Z,15960
2018-02-20T09:08:13.286Z,15927
2018-02-20T09:08:43.262Z,15843
2018-02-20T09:09:13.268Z,15753
2018-02-20T09:09:43.322Z,15613
2018-02-20T09:10:13.383Z,15477
2018-02-20T09:10:43.595Z,15330
2018-02-20T09:11:13.429Z,15213
2018-02-20T09:11:43.486Z,15120
2018-02-20T09:12:13.506Z,14963
2018-02-20T09:12:43.541Z,14827
2018-02-20T09:13:13.542Z,14707
2018-02-20T09:13:43.623Z,14720
2018-02-20T09:14:13.591Z,14797
2018-02-20T09:14:43.618Z,14933
2018-02-20T09:15:13.690Z,15113
2018-02-20T09:15:43.677Z,15270
2018-02-20T09:16:13.760Z,15320
2018-02-20T09:16:43.745Z,15353
2018-02-20T09:17:14.029Z,15407
2018-02-20T09:17:43.797Z,15540
2018-02-20T09:18:13.946Z,15623
2018-02-20T09:18:43.906Z,15627
2018-02-20T09:19:13.897Z,15543
2018-02-20T09:19:43.915Z,15447
2018-02-20T09:20:13.946Z,15330
2018-02-20T09:20:43.979Z,15133
2018-02-20T09:21:14.017Z,14867
2018-02-20T09:21:44.106Z,14607
2018-02-20T09:22:14.092Z,14430
2018-02-20T09:22:44.203Z,14297
2018-02-20T09:23:14.139Z,14207
2018-02-20T09:23:44.182Z,14113
2018-02-20T09:24:14.286Z,14080
2018-02-20T09:24:44.242Z,14063
2018-02-20T09:25:14.267Z,14013
2018-02-20T09:25:44.326Z,13967
2018-02-20T09:26:14.387Z,13913
2018-02-20T09:26:44.391Z,13870
2018-02-20T09:27:14.429Z,13847
2018-02-20T09:27:44.446Z,13810
2018-02-20T09:28:14.490Z,13773
2018-02-20T09:28:44.499Z,13820
2018-02-20T09:29:14.555Z,13750
2018-02-20T09:29:44.557Z,13813
2018-02-20T09:30:14.591Z,13837
2018-02-20T09:30:44.610Z,13807
2018-02-20T09:31:14.629Z,13943
2018-02-20T09:31:44.732Z,14053
2018-02-20T09:32:14.696Z,14183
2018-02-20T09:32:44.741Z,14267
2018-02-20T09:33:14.761Z,14357
2018-02-20T09:33:44.789Z,14440
2018-02-20T09:34:15.197Z,14527
2018-02-20T09:34:44.844Z,14577
2018-02-20T09:35:14.894Z,14630
2018-02-20T09:35:44.913Z,14800
2018-02-20T09:36:14.930Z,14993
2018-02-20T09:36:44.973Z,15143
2018-02-20T09:37:14.999Z,15300
2018-02-20T09:37:45.032Z,15427
2018-02-20T09:38:15.069Z,15513
2018-02-20T09:38:45.165Z,15610
2018-02-20T09:39:15.118Z,15770
2018-02-20T09:39:45.180Z,15713
2018-02-20T09:40:15.252Z,15787
2018-02-20T09:40:45.219Z,15853
2018-02-20T09:41:15.299Z,15930
2018-02-20T09:41:45.326Z,16060
2018-02-20T09:42:15.326Z,16320
2018-02-20T09:42:45.405Z,16483
2018-02-20T09:43:15.440Z,16650
2018-02-20T09:43:45.478Z,16803
2018-02-20T09:44:15.502Z,17053
2018-02-20T09:44:45.532Z,17260
2018-02-20T09:45:15.531Z,17460
2018-02-20T09:45:45.519Z,17693
2018-02-20T09:46:15.631Z,17930
2018-02-20T09:46:45.651Z,18203
2018-02-20T09:47:15.686Z,18450
2018-02-20T09:47:45.908Z,18647
2018-02-20T09:48:15.757Z,18673
2018-02-20T09:48:45.844Z,18820
2018-02-20T09:49:15.826Z,18943
2018-02-20T09:49:45.799Z,18833
2018-02-20T09:50:15.847Z,18970
2018-02-20T09:50:45.890Z,19067
2018-02-20T09:51:15.928Z,19027
2018-02-20T09:51:45.908Z,19123
2018-02-20T09:52:15.980Z,19150
2018-02-20T09:52:46.036Z,19193
2018-02-20T09:53:16.040Z,19020
2018-02-20T09:53:46.095Z,18923
2018-02-20T09:54:16.115Z,18900
2018-02-20T09:54:46.132Z,18980
2018-02-20T09:55:16.099Z,18943
2018-02-20T09:55:46.197Z,19060
2018-02-20T09:56:16.195Z,19200
2018-02-20T09:56:46.250Z,19287
2018-02-20T09:57:16.295Z,19320
2018-02-20T09:57:46.289Z,19560
2018-02-20T09:58:16.324Z,19587
2018-02-20T09:58:46.428Z,19560
2018-02-20T09:59:16.347Z,19533
2018-02-20T09:59:46.421Z,19547
2018-02-20T10:00:16.449Z,19710
2018-02-20T10:00:46.497Z,19820
2018-02-20T10:01:16.556Z,19970
2018-02-20T10:01:46.525Z,20083
2018-02-20T10:02:16.536Z,20317
2018-02-20T10:02:46.579Z,20290
2018-02-20T10:03:16.616Z,20183
2018-02-20T10:03:46.772Z,20077
2018-02-20T10:04:16.683Z,20253
2018-02-20T10:04:46.819Z,20243
2018-02-20T10:05:16.752Z,20187
2018-02-20T10:05:46.752Z,20200
2018-02-20T10:06:16.780Z,20323
2018-02-20T10:06:46.816Z,20340
2018-02-20T10:07:16.848Z,20497
2018-02-20T10:07:46.888Z,20500
2018-02-20T10:08:16.912Z,20283
2018-02-20T10:08:46.987Z,20220
2018-02-20T10:09:16.982Z,20183
2018-02-20T10:09:47.004Z,20073
2018-02-20T10:10:17.041Z,20063
2018-02-20T10:10:47.131Z,19743
2018-02-20T10:11:17.100Z,19297
2018-02-20T10:11:47.175Z,19073
2018-02-20T10:12:17.148Z,19013
2018-02-20T10:12:47.190Z,18650
2018-02-20T10:13:17.281Z,18333
2018-02-20T10:13:47.319Z,18300
2018-02-20T10:14:17.347Z,18247
2018-02-20T10:14:47.317Z,18360
2018-02-20T10:15:17.389Z,18530
2018-02-20T10:15:47.394Z,18890
2018-02-20T10:16:17.423Z,19843
2018-02-20T10:16:47.467Z,20270
2018-02-20T10:17:47.552Z,20300
2018-02-20T10:18:17.541Z,20333
2018-02-20T10:18:47.678Z,20607
2018-02-20T10:19:17.625Z,20920
2018-02-20T10:19:47.635Z,21170
2018-02-20T10:20:17.747Z,21003
2018-02-20T10:20:47.674Z,21177
2018-02-20T10:21:17.717Z,21727
2018-02-20T10:21:47.749Z,21833
2018-02-20T10:22:17.817Z,22080
2018-02-20T10:22:47.815Z,22320
2018-02-20T10:23:17.835Z,22647
2018-02-20T10:23:47.880Z,22667
2018-02-20T10:24:17.894Z,22657
2018-02-20T10:24:47.931Z,22677
2018-02-20T10:25:17.956Z,22763
2018-02-20T10:25:47.989Z,22720
2018-02-20T10:26:18.036Z,22827
2018-02-20T10:26:48.045Z,23140
2018-02-20T10:27:18.075Z,23323
2018-02-20T10:27:48.114Z,23700
2018-02-20T10:28:18.156Z,23880
2018-02-20T10:28:48.262Z,24040
2018-02-20T10:29:18.206Z,23960
2018-02-20T10:29:48.234Z,24147
2018-02-20T10:30:18.257Z,24130
2018-02-20T10:30:48.334Z,23893
2018-02-20T10:31:18.374Z,23777
2018-02-20T10:31:48.407Z,23710
2018-02-20T10:32:18.466Z,23687
2018-02-20T10:32:48.518Z,23777
2018-02-20T10:33:18.494Z,24020
2018-02-20T10:33:48.564Z,24207
2018-02-20T10:34:18.541Z,24163
2018-02-20T10:34:48.585Z,24347
2018-02-20T10:35:18.665Z,24180
2018-02-20T10:35:48.651Z,23847
2018-02-20T10:36:18.663Z,23700
2018-02-20T10:36:48.689Z,23897
2018-02-20T10:37:18.731Z,24233
2018-02-20T10:37:48.761Z,24370
2018-02-20T10:38:18.791Z,24317
2018-02-20T10:38:48.854Z,24500
2018-02-20T10:39:18.884Z,24637
2018-02-20T10:39:48.874Z,24897
2018-02-20T10:40:18.965Z,25053
2018-02-20T10:40:48.982Z,24990
2018-02-20T10:41:18.971Z,24673
2018-02-20T10:41:48.963Z,24710
2018-02-20T10:42:19.042Z,24607
2018-02-20T10:42:49.128Z,24547
2018-02-20T10:43:19.146Z,24460
2018-02-20T10:43:49.120Z,24247
2018-02-20T10:44:19.141Z,24117
2018-02-20T10:44:49.200Z,24397
2018-02-20T10:45:19.288Z,24537
2018-02-20T10:45:49.284Z,24587
2018-02-20T10:46:19.311Z,24437
2018-02-20T10:46:49.302Z,24680
2018-02-20T10:47:19.300Z,24440
2018-02-20T10:47:49.390Z,24510
2018-02-20T10:48:19.440Z,24330
2018-02-20T10:48:49.432Z,24237
2018-02-20T10:49:19.526Z,24567
2018-02-20T10:49:49.528Z,24510
2018-02-20T10:50:19.504Z,23883
2018-02-20T10:50:49.513Z,24367
2018-02-20T10:51:19.581Z,24267
2018-02-20T10:51:49.575Z,24237
2018-02-20T10:52:19.667Z,23713
2018-02-20T10:52:49.652Z,24107
2018-02-20T10:53:19.691Z,24727
2018-02-20T10:53:49.703Z,24700
2018-02-20T10:54:19.754Z,24257
2018-02-20T10:54:49.775Z,24507
2018-02-20T10:55:19.878Z,24943
2018-02-20T10:55:49.828Z,24890
2018-02-20T10:56:19.863Z,24520
2018-02-20T10:56:49.922Z,24033
2018-02-20T10:57:19.936Z,24170
2018-02-20T10:57:49.949Z,24990
2018-02-20T10:58:20.027Z,25283
2018-02-20T10:58:50.036Z,25320
2018-02-20T10:59:20.056Z,24587
2018-02-20T10:59:50.129Z,25127
2018-02-20T11:00:20.131Z,24127
2018-02-20T11:00:50.177Z,23553
2018-02-20T11:01:20.219Z,24763
2018-02-20T11:01:50.270Z,23707
2018-02-20T11:02:20.317Z,24807
2018-02-20T11:02:50.271Z,23633
2018-02-20T11:03:20.345Z,23567
2018-02-20T11:03:50.321Z,22773
2018-02-20T11:04:20.387Z,23887
2018-02-20T11:04:50.388Z,24570
2018-02-20T11:05:20.493Z,25237
2018-02-20T11:05:50.489Z,25033
2018-02-20T11:06:20.530Z,24887
2018-02-20T11:06:50.542Z,23487
2018-02-20T11:07:20.544Z,21247
2018-02-20T11:07:50.614Z,23933
2018-02-20T11:08:20.660Z,20613
2018-02-20T11:08:50.656Z,22843
2018-02-20T11:09:20.673Z,24613
2018-02-20T11:09:50.701Z,25427
2018-02-20T11:10:20.726Z,25797
2018-02-20T11:10:50.756Z,25573
2018-02-20T11:11:20.808Z,24807
2018-02-20T11:11:50.817Z,22690
2018-02-20T11:12:20.859Z,14610
2018-02-20T11:12:50.881Z,16977
2018-02-20T11:13:20.919Z,15493
2018-02-20T11:13:50.974Z,11317
2018-02-20T11:14:20.973Z,24573
2018-02-20T11:14:51.033Z,24480
2018-02-20T11:15:21.122Z,23510
2018-02-20T11:15:51.072Z,15757
2018-02-20T11:16:21.206Z,14060
2018-02-20T11:16:51.972Z,23820
2018-02-20T11:17:21.184Z,22890
2018-02-20T11:17:51.299Z,18997
2018-02-20T11:18:21.402Z,13000
2018-02-20T11:18:51.373Z,21203
2018-02-20T11:19:21.450Z,20943
2018-02-20T11:19:51.438Z,25290
2018-02-20T11:20:21.488Z,25723
2018-02-20T11:20:51.520Z,25633
2018-02-20T11:21:21.527Z,25573
2018-02-20T11:21:51.555Z,25310
2018-02-20T11:22:21.582Z,25210
2018-02-20T11:22:51.634Z,25470
2018-02-20T11:23:21.643Z,25850
2018-02-20T11:23:51.663Z,25753
2018-02-20T11:24:21.707Z,25893
2018-02-20T11:24:51.782Z,16873
2018-02-20T11:25:21.791Z,16590
2018-02-20T11:25:51.809Z,20807
2018-02-20T11:26:21.933Z,16583
2018-02-20T11:26:51.888Z,13500
2018-02-20T11:27:21.912Z,14527
2018-02-20T11:27:51.962Z,11483
2018-02-20T11:28:21.972Z,11860
2018-02-20T11:28:52.008Z,12977
2018-02-20T11:29:22.025Z,20453
2018-02-20T11:29:52.061Z,15640
2018-02-20T11:30:22.061Z,13217
2018-02-20T11:30:52.115Z,19513
2018-02-20T11:31:22.159Z,18307
2018-02-20T11:31:52.149Z,24670
2018-02-20T11:32:22.235Z,14040
2018-02-20T11:32:52.197Z,12617
2018-02-20T11:33:22.305Z,14533
2018-02-20T11:33:52.332Z,24433
2018-02-20T11:34:22.361Z,20303
2018-02-20T11:34:52.385Z,23140
2018-02-20T11:35:22.418Z,12617
2018-02-20T11:35:52.425Z,12667
2018-02-20T11:36:22.527Z,13913
2018-02-20T11:36:52.462Z,12123
2018-02-20T11:37:22.527Z,12067
2018-02-20T11:37:52.535Z,13437
2018-02-20T11:38:22.588Z,26060
2018-02-20T11:38:52.575Z,26877
2018-02-20T11:39:22.595Z,26303
2018-02-20T11:39:52.647Z,25167
2018-02-20T11:40:22.674Z,24963
2018-02-20T11:40:52.701Z,22683
2018-02-20T11:41:22.803Z,25777
2018-02-20T11:41:52.762Z,25323
2018-02-20T11:42:22.816Z,23747
2018-02-20T11:42:52.818Z,14893
2018-02-20T11:43:23.274Z,26250
2018-02-20T11:43:52.966Z,27183
2018-02-20T11:44:22.911Z,25473
2018-02-20T11:44:52.938Z,25817
2018-02-20T11:45:22.965Z,25643
2018-02-20T11:45:53.014Z,26037
2018-02-20T11:46:23.062Z,25870
2018-02-20T11:46:53.075Z,25710
2018-02-20T11:47:23.097Z,26037
2018-02-20T11:47:53.193Z,25437
2018-02-20T11:48:23.180Z,25303
2018-02-20T11:48:53.206Z,24740
2018-02-20T11:49:23.246Z,24530
2018-02-20T11:49:53.250Z,24203
2018-02-20T11:50:23.370Z,24217
2018-02-20T11:50:53.317Z,24630
2018-02-20T11:51:23.384Z,25140
2018-02-20T11:51:53.431Z,24933
2018-02-20T11:52:23.429Z,25097
2018-02-20T11:52:53.502Z,24833
2018-02-20T11:53:23.518Z,24303
2018-02-20T11:53:53.554Z,24267
2018-02-20T11:54:23.564Z,24503
2018-02-20T11:54:53.630Z,24237
2018-02-20T11:55:23.617Z,24593
2018-02-20T11:55:53.636Z,24693
2018-02-20T11:56:23.697Z,24387
2018-02-20T11:56:53.712Z,24433
2018-02-20T11:57:23.734Z,23857
2018-02-20T11:57:53.750Z,23997
2018-02-20T11:58:23.807Z,24233
2018-02-20T11:58:53.829Z,24207
2018-02-20T11:59:23.835Z,24220
2018-02-20T11:59:53.870Z,24183
2018-02-20T12:00:23.908Z,23680
2018-02-20T12:00:53.934Z,23643
2018-02-20T12:01:23.982Z,23710
2018-02-20T12:01:54.055Z,23737
2018-02-20T12:02:24.033Z,23853
2018-02-20T12:02:54.063Z,23813
2018-02-20T12:03:24.095Z,24287
2018-02-20T12:03:54.117Z,24540
2018-02-20T12:04:24.151Z,24177
2018-02-20T12:04:54.196Z,24040
2018-02-20T12:05:24.218Z,24190
2018-02-20T12:05:54.225Z,23813
2018-02-20T12:06:24.310Z,24103
2018-02-20T12:06:54.402Z,23993
2018-02-20T12:07:24.375Z,23747
2018-02-20T12:07:54.419Z,23620
2018-02-20T12:08:24.453Z,23780
2018-02-20T12:08:54.490Z,23790
2018-02-20T12:09:24.489Z,23570
2018-02-20T12:09:54.613Z,23410
2018-02-20T12:10:24.526Z,23300
2018-02-20T12:10:54.605Z,23373
2018-02-20T12:11:24.641Z,23147
2018-02-20T12:11:54.646Z,23003
2018-02-20T12:12:24.699Z,22760
2018-02-20T12:12:54.776Z,22153
2018-02-20T12:13:24.748Z,22427
2018-02-20T12:13:54.887Z,22527
2018-02-20T12:14:24.768Z,21673
2018-02-20T12:14:54.854Z,20227
2018-02-20T12:15:24.856Z,21250
2018-02-20T12:15:54.884Z,22397
2018-02-20T12:16:25.068Z,22410
2018-02-20T12:16:54.969Z,22117
2018-02-20T12:17:24.986Z,23333
2018-02-20T12:17:55.294Z,22860
2018-02-20T12:18:25.041Z,23350
2018-02-20T12:18:55.098Z,23307
2018-02-20T12:19:25.105Z,23300
2018-02-20T12:19:55.187Z,23973
2018-02-20T12:20:25.181Z,22970
2018-02-20T12:20:55.296Z,22630
2018-02-20T12:21:25.222Z,23343
2018-02-20T12:21:55.284Z,23693
2018-02-20T12:22:25.290Z,24073
2018-02-20T12:22:55.369Z,24353
2018-02-20T12:23:25.396Z,24520
2018-02-20T12:23:55.394Z,24530
2018-02-20T12:24:25.425Z,23860
2018-02-20T12:24:55.456Z,22540
2018-02-20T12:25:25.451Z,21113
2018-02-20T12:25:55.478Z,20690
2018-02-20T12:26:25.504Z,20180
2018-02-20T12:26:55.617Z,16507
2018-02-20T12:27:25.567Z,19107
2018-02-20T12:27:55.610Z,22587
2018-02-20T12:28:25.663Z,24163
2018-02-20T12:28:55.695Z,23793
2018-02-20T12:29:25.704Z,23317
2018-02-20T12:29:55.729Z,23003
2018-02-20T12:30:25.785Z,22990
2018-02-20T12:30:55.799Z,23997
2018-02-20T12:31:26.013Z,23933
2018-02-20T12:31:55.829Z,22507
2018-02-20T12:32:25.863Z,21823
2018-02-20T12:32:55.919Z,20500
2018-02-20T12:33:25.947Z,21433
2018-02-20T12:33:55.966Z,23533
2018-02-20T12:34:25.984Z,23587
2018-02-20T12:34:56.035Z,23667
2018-02-20T12:35:26.126Z,22043
2018-02-20T12:35:56.166Z,21960
2018-02-20T12:36:26.109Z,23070
2018-02-20T12:36:56.158Z,23780
2018-02-20T12:37:26.172Z,23687
2018-02-20T12:37:56.210Z,22833
2018-02-20T12:38:26.275Z,21963
2018-02-20T12:38:56.363Z,20433
2018-02-20T12:39:26.351Z,20633
2018-02-20T12:39:56.385Z,20340
2018-02-20T12:40:26.399Z,22303
2018-02-20T12:40:56.429Z,22067
2018-02-20T12:41:26.461Z,22937
2018-02-20T12:41:56.539Z,23013
2018-02-20T12:42:26.530Z,22913
2018-02-20T12:42:56.664Z,22683
2018-02-20T12:43:26.566Z,22370
2018-02-20T12:43:56.595Z,22387
2018-02-20T12:44:26.674Z,22213